Lewisville, ID (83431)

4:39 AM MDT on October 02, 2014 (GMT -0600)
Garfield Area | Change Station
CLOSE
Current Station
Personal Weather Station
Location: Rigby, ID
Elevation: 4820 ft
Nearby Weather Stations
Active Advisory: Frost Advisory

Elev 4820 ft 43.64 °N, 111.96 °W | Updated 3 minutes ago

Clear
Clear
42.6 °F
Feels Like 37 °F
N
10.0
Wind Variable Wind from SSW
Gusts 15.0 mph

Today
High -- | Low -- °F
--% Chance of Precip.
Yesterday
High -- | Low -- °F
Precip. -- in
7:26 AM 7:07 PM
First Quarter, 57% visible
Pressure 30.15 in
Visibility 10.0 miles
Clouds Clear
Windchill 37 °F
Dew Point 33 °F
Humidity 68%
Rainfall 0.00 in
Snow Depth 2 in , 1 in , 1 in
UV 0 out of 12
Pollen 5.70 out of 12
Air Quality Not available.
Flu Activity Not available.
METAR KIDA 020953Z AUTO 21013KT 10SM CLR 06/M01 A3018 RMK AO2 SLP209 T00611011

More Conditions Fewer Conditions

Pressure 30.15 in
Visibility 10.0 miles
Clouds Clear
Windchill 37 °F
Dew Point 33 °F
Humidity 68%
Rainfall 0.00 in
Snow Depth 2 in , 1 in , 1 in
UV 0 out of 12
Pollen 5.70 out of 12
Air Quality Not available.
Flu Activity Not available.
METAR KIDA 020953Z AUTO 21013KT 10SM CLR 06/M01 A3018 RMK AO2 SLP209 T00611011

More Conditions Fewer Conditions

10-Day Weather Forecast

Almanac

Astronomy

Oct. 02, 2014 Rise Set
Actual Time 7:26 AM MDT 7:07 PM MDT
Civil Twilight 6:58 AM MDT 7:35 PM MDT
Nautical Twilight 6:24 AM MDT 8:08 PM MDT
Astronomical Twilight 5:51 AM MDT 8:42 PM MDT
Moon 3:26 PM MDT 12:37 AM MDT
Length of Visible Light 12h 37m
Length of Day
11h 40m
Tomorrow will be 2m 57s shorter.
First Quarter, 57% of the Moon is Illuminated
Today
First Quarter
Oct 8
Full
Oct 15
Last Quarter
Oct 23
New
Oct 30
First Quarter

Today's Extremes

State Highs State Lows

Community

WunderPhotos

Upload Photos

1,758,210 photos uploaded!

WunderBlogs® & News

Nearby

Air Quality

  Air Quality AQ Index Pollutant
Yesterday Good
PM2.5
Thursday Good
PM2.5

Snow Depth

Station Depth Elevation
Mud Flat 2 in 5730 ft
Schwartz Lake 1 in 8620 ft
Deadwood Summit 1 in 6860 ft
Mill Creek Summit 1 in 8800 ft
Magic Mountain 1 in 6880 ft

Earthquake Activity

City Distance Mag. Time & Date
No recent earthquake activity has been reported nearby.
Minimum magnitude displayed is 2.5.

Coastal Water Temperatures

Place Temperature
No Stations Reporting

Nearby Weather Stations